Impacts TAF Board
For situational awareness. Not to be used for flight planning purposes.
IDs:

KIAD - Washington/Dulles In, VA, US

Issued at 2334 UTC 09 Dec 2022
Updated at 0213 UTC 10 Dec 2022
Potential Impact None Slight Moderate High
Time0152Z 10/03Z 10/04Z 10/05Z 10/06Z 10/07Z 10/08Z 10/09Z 10/10Z 10/11Z 10/12Z 10/13Z 10/14Z 10/15Z>>
Type OBS PRVL PRVL PRVL PRVL PRVL PRVL PRVL PRVL PRVL PRVL PRVL PRVL PRVL
VIS 10 >6 >6 >6 >6 >6 >6 >6 >6 >6 >6 >6 >6 >6
CIG -- -- -- -- -- -- -- -- -- -- -- -- -- --
Cover CLR SKC SKC SKC FEW FEW FEW FEW FEW FEW FEW FEW FEW SCT
FltCat VFR VFR VFR VFR VFR VFR VFR VFR VFR VFR VFR VFR VFR VFR
WX -- -- -- -- -- -- -- -- -- -- -- -- -- --
WDir 20 VRB VRB VRB 360 360 360 360 360 360 360 360 360 50
WSpd 3 0 0 0 3 3 3 3 3 3 3 3 3 5
WGst -- -- -- -- -- -- -- -- -- -- -- -- -- --
WSHgt -- -- -- -- -- -- -- -- -- -- -- -- -- --
WSDir -- -- -- -- -- -- -- -- -- -- -- -- -- --
WSSpd -- -- -- -- -- -- -- -- -- -- -- -- -- --
Raw TAF
KIAD 092334Z 1000/1106 00000KT P6SM SKC
  FM100600 36003KT P6SM FEW100
  FM101500 05005KT P6SM SCT045
  FM101900 07003KT P6SM BKN060
  FM110300 10003KT P6SM OVC025


Raw METAR
KIAD 100152Z 02003KT 10SM CLR 02/M03 A3029 RMK AO2 SLP259 T00221033
KIAD 100052Z 03004KT 10SM CLR 03/M03 A3028 RMK AO2 SLP256 T00281033
KIAD 092352Z 02006KT 10SM CLR 06/M03 A3026 RMK AO2 SLP250 T00561028 10100 20033 53008

METAR Board
Radar Display
Forecast Discussion
For situational awareness. Not to be used for flight planning purposes.